Terminal Aerodrome Forecast
Issued by NWS Sterling, VA

Current Version | Previous Version | Text Only | Print | Product List | Glossary Off
Versions: 1 2 3 4 5 6 7 8 9 10 11 12 13 14 15 16 17 18 19

000
FTUS41 KLWX 201700 RRA
TAFMRB
TAF
KMRB 201744Z 2018/2118 16005KT P6SM SCT100
     FM201900 19006KT P6SM BKN100
     FM210100 VRB03KT P6SM BKN050
     FM211300 28005KT P6SM OVC050=

USA.gov is the U.S. government's official web portal to all federal, state and local government web resources and services.